Home PIREPS Pireps

Flight BEL7013

  • Submitted By: Vincent Fourni
  • Departure Airport: Bruxelles National (EBBR)
  • Arrival Airport: Rhein-Main-Flughafen Frankfurt am Main (EDDF)
  • Aircraft: A320-214 (OO-SNA)
  • Flight Time: 00.45
  • Date Submitted: 12/06/2016
  • Status: Accepted
Flight Details
Gross Revenue:
(135 load / € 41.00 per unit
€ 5,535.00
Fuel Cost:
(2335 fuel used @ 5.1 / unit)
€ 11,908.50

Additional Log Information:

View Log

Aircraft Used in flight is PMDG 737-800NGX Brussels Airlines Winglets
11:42 In Air Refuel Suspected
11:46 You Took off @ 157 Knots and Flaps at Position 3
Departure Weather
EBBR 120920Z 26006KT 230V290 9000 -SHRA SCT021 18/13 Q1010 TEMPO 4500 SHRArn
11:46 You are Airborne and your Beacons are off
11:46 Landing Gear Up @ 159 Knots and 490 Feet
12:10 Above FL100 you need to switch of the landing lights
12:10 Above FL100 you need to switch of the landing lights
12:11 Below 10000 feet you are not allowed to go over 250 knots
12:17 Landing Gear Down @ 226 Knots and 4030 Feet
12:18 You exceeded maximum bank angle
12:18 Landing Gear Up @ 204 Knots and 2260 Feet
12:18 Landing Gear Down @ 205 Knots and 2140 Feet
12:19 You Landed @ 158 Knots and with -1000 Vertical Speed
Arrival Weather
EDDF 120950Z 36008KT 320V030 9999 SCT008TCU BKN090 19/15 Q1008 TEMPO SHRArn
12:19 Your Landing was very hard
13:34 Brussels Bel-Track1.0.1.2

Route Map

Corporate About Us Our Team Vacancies Information Fleet Route Network Rules and Regulations Operations Flight Schedules Event Center Tours Partners IVAO Vatsim Acars dev FSCB

fb Users Online No pilots online!
0 Pilot(s) and 164 Guest(s) Online
CMS by phpVMS - Design by Crazycreatives.com - Copyright © 2020 - Brussels Airlines Virtual